createdAt,value
2022-11-21T00:02:49.628Z,39.17
2022-11-21T00:07:53.539Z,41.78
2022-11-21T00:12:56.589Z,45.67
2022-11-21T00:17:59.182Z,45.60
2022-11-21T00:23:03.050Z,45.83
2022-11-21T00:28:06.609Z,48.35
2022-11-21T00:33:09.206Z,44.72
2022-11-21T00:38:13.087Z,48.10
2022-11-21T00:43:15.655Z,49.20
2022-11-21T00:48:18.240Z,46.50
2022-11-21T00:53:22.144Z,47.90
2022-11-21T00:58:24.713Z,46.08
2022-11-21T01:03:29.001Z,47.47
2022-11-21T01:08:33.129Z,49.95
2022-11-21T01:13:36.339Z,44.57
2022-11-21T01:18:39.179Z,42.28
2022-11-21T01:23:43.209Z,41.63
2022-11-21T01:28:46.977Z,44.87
2022-11-21T01:33:50.480Z,43.40
2022-11-21T01:38:56.249Z,44.17
2022-11-21T01:43:59.046Z,49.03
2022-11-21T01:49:05.696Z,44.75
2022-11-21T01:54:14.172Z,45.42
2022-11-21T01:59:21.567Z,45.73
2022-11-21T02:04:29.728Z,48.58
2022-11-21T02:09:36.999Z,61.47
2022-11-21T02:14:43.190Z,58.65
2022-11-21T02:19:53.218Z,58.70
2022-11-21T02:25:03.914Z,55.67
2022-11-21T02:30:09.192Z,57.45
2022-11-21T02:35:11.704Z,56.53
2022-11-21T02:40:19.721Z,59.33
2022-11-21T02:45:27.798Z,60.75
2022-11-21T02:50:32.866Z,63.20
2022-11-21T02:55:38.035Z,56.78
2022-11-21T03:00:42.597Z,57.88
2022-11-21T03:05:45.387Z,50.85
2022-11-21T03:10:49.817Z,43.83
2022-11-21T03:15:52.594Z,41.63
2022-11-21T03:20:55.180Z,38.55
2022-11-21T03:25:59.819Z,37.20
2022-11-21T03:31:02.488Z,42.33
2022-11-21T03:36:05.761Z,42.13
2022-11-21T03:41:29.194Z,44.47
2022-11-21T03:46:33.608Z,45.93
2022-11-21T03:51:37.178Z,46.78
2022-11-21T03:56:41.063Z,50.20
2022-11-21T04:01:43.663Z,48.80
2022-11-21T04:06:46.259Z,43.80
2022-11-21T04:11:50.150Z,43.35
2022-11-21T04:16:53.091Z,37.03
2022-11-21T04:21:55.600Z,38.80
2022-11-21T04:26:59.482Z,40.20
2022-11-21T04:32:02.003Z,38.05
2022-11-21T04:37:10.191Z,30.67
2022-11-21T04:42:15.393Z,30.58
2022-11-21T04:47:17.952Z,34.15
2022-11-21T04:52:20.479Z,34.35
2022-11-21T04:57:24.711Z,37.77
2022-11-21T05:02:27.474Z,40.40
2022-11-21T05:07:30.186Z,44.00
2022-11-21T05:12:52.080Z,44.10
2022-11-21T05:17:54.623Z,89.00
2022-11-21T05:22:57.183Z,45.60
2022-11-21T05:28:01.103Z,45.70
2022-11-21T05:33:03.731Z,45.50
2022-11-21T05:38:06.238Z,47.85
2022-11-21T05:43:28.875Z,47.47
2022-11-21T05:48:31.409Z,48.67
2022-11-21T05:53:34.785Z,51.30
2022-11-21T05:58:39.134Z,49.47
2022-11-21T06:03:43.138Z,49.20
2022-11-21T06:08:47.354Z,53.07
2022-11-21T06:13:51.329Z,59.40
2022-11-21T06:18:58.348Z,142.02
2022-11-21T06:24:01.221Z,55.03
2022-11-21T06:29:05.063Z,51.45
2022-11-21T06:34:07.612Z,56.30
2022-11-21T06:39:10.249Z,52.23
2022-11-21T06:44:14.346Z,54.20
2022-11-21T06:49:19.050Z,59.08
2022-11-21T06:54:21.575Z,64.60
2022-11-21T06:59:25.480Z,69.18
2022-11-21T07:04:28.948Z,64.40
2022-11-21T07:09:34.296Z,61.08
2022-11-21T07:14:38.580Z,52.65
2022-11-21T07:19:41.533Z,47.50
2022-11-21T07:24:44.144Z,46.78
2022-11-21T07:29:48.044Z,41.67
2022-11-21T07:34:50.851Z,41.67
2022-11-21T07:39:53.376Z,42.42
2022-11-21T07:44:57.304Z,179.02
2022-11-21T07:50:00.243Z,66.60
2022-11-21T07:55:03.627Z,47.72
2022-11-21T08:00:09.298Z,49.63
2022-11-21T08:05:11.822Z,49.40
2022-11-21T08:10:14.515Z,56.75
2022-11-21T08:15:18.492Z,59.67
2022-11-21T08:20:21.112Z,63.40
2022-11-21T08:25:23.735Z,143.18
2022-11-21T08:30:27.871Z,66.53
2022-11-21T08:35:31.062Z,69.97
2022-11-21T08:40:34.320Z,85.13
2022-11-21T08:45:39.465Z,79.23
2022-11-21T08:50:41.991Z,81.00
2022-11-21T08:55:44.517Z,80.18
2022-11-21T09:00:48.816Z,77.25
2022-11-21T09:05:51.453Z,80.95
2022-11-21T09:10:54.105Z,84.32
2022-11-21T09:16:20.246Z,81.05
2022-11-21T09:21:23.385Z,74.78
2022-11-21T09:26:25.971Z,71.57
2022-11-21T09:31:29.921Z,63.57
2022-11-21T09:36:32.610Z,62.30
2022-11-21T09:41:52.894Z,67.63
2022-11-21T09:47:05.278Z,55.45
2022-11-21T09:52:09.976Z,44.88
2022-11-21T09:57:19.118Z,47.95
2022-11-21T10:02:25.097Z,42.70
2022-11-21T10:07:31.285Z,47.80
2022-11-21T10:12:41.999Z,33.70
2022-11-21T10:18:03.746Z,26.65
2022-11-21T10:23:23.667Z,27.13
2022-11-21T10:28:39.720Z,27.48
2022-11-21T10:33:44.027Z,27.48
2022-11-21T10:38:46.739Z,28.00
2022-11-21T10:44:17.587Z,105.35
2022-11-21T10:49:21.534Z,32.17
2022-11-21T10:54:36.406Z,17.90
2022-11-21T10:59:38.982Z,16.73
2022-11-21T11:04:49.191Z,16.92
2022-11-21T11:10:15.891Z,21.00
2022-11-21T11:15:21.203Z,14.95
2022-11-21T11:20:35.167Z,12.00
2022-11-21T11:25:37.833Z,15.10
2022-11-21T11:30:41.248Z,12.52
2022-11-21T11:35:45.382Z,13.23
2022-11-21T11:40:47.909Z,16.87
2022-11-21T11:46:28.059Z,11.65
2022-11-21T11:51:38.197Z,9.85
2022-11-21T11:56:43.495Z,10.83
2022-11-21T12:01:52.689Z,14.65
2022-11-21T12:12:33.336Z,13.03
2022-11-21T12:17:42.950Z,11.10
2022-11-21T12:22:50.515Z,12.30
2022-11-21T12:27:56.247Z,13.75
2022-11-21T12:33:09.008Z,11.87
2022-11-21T12:38:28.732Z,35.65
2022-11-21T12:43:40.849Z,14.68
2022-11-21T12:49:16.222Z,11.10
2022-11-21T12:55:01.398Z,12.90
2022-11-21T13:00:15.790Z,13.90
2022-11-21T13:05:27.615Z,14.73
2022-11-21T13:10:31.055Z,12.50
2022-11-21T13:15:44.781Z,9.40
2022-11-21T13:20:49.895Z,8.10
2022-11-21T13:25:53.321Z,25.30
2022-11-21T13:30:58.053Z,12.82
2022-11-21T13:36:00.733Z,6.28
2022-11-21T13:41:20.975Z,33.50
2022-11-21T13:47:02.546Z,10.43
2022-11-21T13:52:09.175Z,10.33
2022-11-21T13:57:30.522Z,8.63
2022-11-21T14:02:54.800Z,11.00
2022-11-21T14:08:14.248Z,12.57
2022-11-21T14:13:27.871Z,10.63
2022-11-21T14:18:33.491Z,9.43
2022-11-21T14:23:37.336Z,11.98
2022-11-21T14:28:40.127Z,13.50
2022-11-21T14:33:45.104Z,8.80
2022-11-21T14:39:07.638Z,13.80
2022-11-21T14:44:19.050Z,19.53
2022-11-21T14:49:30.205Z,14.47
2022-11-21T14:54:50.279Z,13.82
2022-11-21T15:00:06.272Z,8.10
2022-11-21T15:05:29.047Z,8.23
2022-11-21T15:10:39.910Z,40.20
2022-11-21T15:15:47.366Z,23.95
2022-11-21T15:20:54.247Z,13.13
2022-11-21T15:26:00.908Z,9.77
2022-11-21T15:31:20.731Z,10.77
2022-11-21T15:36:24.990Z,11.85
2022-11-21T15:41:31.186Z,11.70
2022-11-21T15:46:37.667Z,20.67
2022-11-21T15:52:06.131Z,9.25
2022-11-21T15:57:05.878Z,7.80
2022-11-21T16:02:13.245Z,14.52
2022-11-21T16:07:17.203Z,25.40
2022-11-21T16:12:19.882Z,8.60
2022-11-21T16:17:22.470Z,7.75
2022-11-21T16:22:26.494Z,6.82
2022-11-21T16:27:29.375Z,4.65
2022-11-21T16:32:32.361Z,8.85
2022-11-21T16:37:36.272Z,6.80
2022-11-21T16:42:38.987Z,6.15
2022-11-21T16:47:47.306Z,6.57
2022-11-21T16:52:52.583Z,5.45
2022-11-21T16:57:57.802Z,5.82
2022-11-21T17:03:01.368Z,28.17
2022-11-21T17:08:05.502Z,9.20
2022-11-21T17:13:08.048Z,7.43
2022-11-21T17:18:10.600Z,5.35
2022-11-21T17:23:14.977Z,8.15
2022-11-21T17:28:17.589Z,8.18
2022-11-21T17:33:21.370Z,48.77
2022-11-21T17:38:25.951Z,6.93
2022-11-21T17:43:28.761Z,7.95
2022-11-21T17:48:33.570Z,10.23
2022-11-21T17:53:39.287Z,7.95
2022-11-21T17:58:42.576Z,9.97
2022-11-21T18:03:45.391Z,12.05
2022-11-21T18:08:50.013Z,10.02
2022-11-21T18:13:54.098Z,9.20
2022-11-21T18:18:56.792Z,10.50
2022-11-21T18:24:00.925Z,7.30
2022-11-21T18:29:35.710Z,8.23
2022-11-21T18:34:28.031Z,9.77
2022-11-21T18:39:32.237Z,8.48
2022-11-21T18:44:35.100Z,19.90
2022-11-21T18:49:37.678Z,13.85
2022-11-21T18:54:41.585Z,8.87
2022-11-21T18:59:44.596Z,8.13
2022-11-21T19:04:47.327Z,10.15
2022-11-21T19:09:51.283Z,7.87
2022-11-21T19:14:55.440Z,8.60
2022-11-21T19:19:57.982Z,31.50
2022-11-21T19:25:02.053Z,8.87
2022-11-21T19:30:05.214Z,7.87
2022-11-21T19:35:09.383Z,29.52
2022-11-21T19:40:14.765Z,10.60
2022-11-21T19:45:17.381Z,18.87
2022-11-21T19:50:19.942Z,9.57
2022-11-21T19:55:23.879Z,9.32
2022-11-21T20:00:26.527Z,10.15
2022-11-21T20:05:29.034Z,12.35
2022-11-21T20:10:33.911Z,8.70
2022-11-21T20:15:38.734Z,13.35
2022-11-21T20:20:41.330Z,12.02
2022-11-21T20:25:49.328Z,18.80
2022-11-21T20:30:51.863Z,18.42
2022-11-21T20:35:55.764Z,12.50
2022-11-21T20:40:59.678Z,7.20
2022-11-21T20:46:10.008Z,11.82
2022-11-21T20:56:42.564Z,7.32
2022-11-21T21:01:46.913Z,13.50
2022-11-21T21:06:49.558Z,17.13
2022-11-21T21:11:53.771Z,10.20
2022-11-21T21:16:56.396Z,16.35
2022-11-21T21:21:58.981Z,13.43
2022-11-21T21:27:02.902Z,16.13
2022-11-21T21:32:06.292Z,14.70
2022-11-21T21:37:08.974Z,11.23
2022-11-21T21:42:12.974Z,8.70
2022-11-21T21:47:17.139Z,15.75
2022-11-21T21:52:19.801Z,10.10
2022-11-21T21:57:23.685Z,24.67
2022-11-21T22:02:26.258Z,13.53
2022-11-21T22:07:28.875Z,9.77
2022-11-21T22:12:33.169Z,11.88
2022-11-21T22:17:35.777Z,8.30
2022-11-21T22:22:38.339Z,7.82
2022-11-21T22:27:42.550Z,10.98
2022-11-21T22:32:45.130Z,12.32
2022-11-21T22:37:50.305Z,11.20
2022-11-21T22:42:54.283Z,10.80
2022-11-21T22:47:56.808Z,7.75
2022-11-21T22:52:59.355Z,10.60
2022-11-21T22:58:03.339Z,12.80
2022-11-21T23:03:05.905Z,8.98
2022-11-21T23:08:08.429Z,7.60
2022-11-21T23:13:12.296Z,8.30
2022-11-21T23:18:15.313Z,7.77
2022-11-21T23:23:17.964Z,7.60
2022-11-21T23:28:22.272Z,10.48
2022-11-21T23:33:24.922Z,10.77
2022-11-21T23:38:27.616Z,9.15
2022-11-21T23:43:31.941Z,9.30
2022-11-21T23:48:34.476Z,11.80
2022-11-21T23:53:36.992Z,12.48
2022-11-21T23:58:40.907Z,9.93
